Belle Mina, Alabama
Current Conditions -  °F | °C
As of 5:53 PM on Wednesday 22 Oct 2014 (Local Time) from KDCU Reporting Station
Clear Clear  
Wind Chill: 61°   Ceiling: Unl
Heat Index: 61°   Visibility: 10mi
Dew Point: 41°   Wind: 7mph
Humidity: 48%   Direction: 20°NNE
Pressure: 30.15"   Gusts: NA
Location:  34.66°N, 86.88°W
Report Text: KDCU 222253Z AUTO 02006KT 10SM CLR 16/05 A3015 RMK AO2 SLP209 T01610050
Loading
Personal Weather Stations






























Interactive Weather Map
Tropical Storm Tracking
New forecast layout! Learn more

10-Day Weather Forecast

Advertisements
Track Severe Weather on mobile